Terminal Aerodrome Forecast
Issued by NWS Grand Forks, ND

Home | Current Version | Previous Version | Text Only | Print | Product List | Glossary On
Versions: 1 2 3 4 5 6 7 8 9 10 11 12 13 14 15 16
261
FTUS43 KFGF 180527
TAFGFK
TAF
KGFK 180527Z 1806/1906 29005KT P6SM SCT180 BKN200
     FM181100 31008KT P6SM BKN080
     FM181500 32012KT P6SM BKN080
     FM181800 32016G24KT P6SM SCT150
     FM182300 30011KT P6SM FEW250
     FM190200 28007KT P6SM FEW250=

USA.gov is the U.S. government's official web portal to all federal, state and local government web resources and services.